Terminal Aerodrome Forecast
Issued by NWS

Home | Current Version | Previous Version | Graphics & Text | Print | Product List | Glossary On
Versions: 1 2 3 4 5 6 7 8 9 10 11 12 13 14 15 16 17
248
FTUS43 KMPX 202320
TAFRWF
TAF
KRWF 202320Z 2100/2124 13005KT P6SM SCT250
     FM211200 14009KT P6SM SCT040 BKN120 PROB30 2113/2116 5SM -TSRA
      BKN040CB OVC100
     FM211800 15009KT P6SM BKN040 OVC100=

USA.gov is the U.S. government's official web portal to all federal, state and local government web resources and services.